| Record Date MM/DD/YYYY | Record Time HH:MM:SS | Record Julian Date NNN day of the year | Air Temperature Max (Degrees Fahrenheit F) | Time Max Air Temperature HH:MM:SS This is the time of max air temp for the prior hour interval listed for record [Time]. | Air Temperature Min (Degrees Fahrenheit F) | Time Min Air Temperature HH:MM:SS This is the time of min air temp for the prior hour interval listed for record [Time]. | Air Temperature Observed (Degrees Fahrenheit F) This is an instantaneous reading at the record [Time]. | Relative Humidity Max (Percent) | Time Max Relative Humidity HH:MM:SS This is the time of max relative humidity for the prior hour interval listed for record [Time]. | Relative Humidity Min (Percent) | Time Min Relative Humidity HH:MM:SS This is the time of min relative humidity for the prior hour interval listed for record [Time]. | Relative Humidity Observed (Percent) This is an instantaneous reading at the record [Time]. | Precipitation (Inches n.nn) rain fall that occurred during the prior hour interval listed for record [Time]. | Wind Speed (Miles Per Hour) Resultant Speed that occurred during the prior hour interval listed for record [Time]. | Wind Direction (Degrees) Resultant Direction that occurred during the prior hour interval listed for record [Time]. | Solar Radiation (Langley's) that occurred during the prior hour interval listed for record [Time]. | Soil Temperature Average at 2 inch depth (Degrees Fahrenheit F) that occurred during the prior hour interval listed for record [Time]. | Soil Temperature Observed at 2 inch depth (Degrees Fahrenheit F) This is an instantaneous reading at the record [Time]. | Soil Temperature Average at 4 inch depth (Degrees Fahrenheit F) that occurred during the prior hour interval listed for record [Time]. | Soil Temperature Observed at 4 inch depth (Degrees Fahrenheit F) This is an instantaneous reading at the record [Time]. |
|---|---|---|---|---|---|---|---|---|---|---|---|---|---|---|---|---|---|---|---|---|
| 04/29/2026 | 0:00:00 | 119 | 67 | 23:00:02 | 67 | 23:57:02 | 67 | 95 | 0:00:00 | 95 | 23:28:05 | 95.4 | 0 | 2.3 | 82 | 0 | 70 | 70 | 70 | 70 |
| 04/29/2026 | 1:00:00 | 119 | 67 | 0:00:02 | 66 | 0:59:03 | 66 | 96 | 0:42:04 | 95 | 0:38:02 | 95.3 | 0 | 0.7 | 125 | 0 | 69 | 69 | 70 | 69 |
| 04/29/2026 | 2:00:00 | 119 | 66 | 1:03:00 | 65 | 1:24:02 | 66 | 96 | 1:40:03 | 95 | 1:00:02 | 95.6 | 0 | 0.4 | 204 | 0 | 69 | 69 | 69 | 69 |
| 04/29/2026 | 3:00:00 | 119 | 67 | 2:57:05 | 66 | 2:00:02 | 67 | 96 | 2:48:01 | 96 | 2:01:00 | 95.7 | 0 | 0.4 | 169 | 0 | 69 | 69 | 69 | 69 |
| 04/29/2026 | 4:00:00 | 119 | 68 | 3:58:02 | 67 | 3:00:00 | 68 | 96 | 3:07:05 | 96 | 3:56:03 | 95.7 | 0 | 0.6 | 197 | 0 | 69 | 69 | 69 | 69 |
| 04/29/2026 | 5:00:00 | 119 | 69 | 4:54:05 | 68 | 4:00:02 | 69 | 96 | 4:05:00 | 96 | 4:40:00 | 95.6 | 0 | 1.2 | 99 | 0 | 69 | 69 | 69 | 69 |
| 04/29/2026 | 6:00:00 | 119 | 69 | 5:50:00 | 69 | 5:00:01 | 69 | 96 | 5:09:03 | 95 | 5:56:02 | 95.6 | 0 | 0.6 | 117 | 1 | 69 | 69 | 69 | 69 |
| 04/29/2026 | 7:00:00 | 119 | 69 | 6:42:03 | 68 | 6:15:01 | 69 | 96 | 6:27:00 | 95 | 7:00:00 | 94.8 | 0 | 0.2 | 33 | 6 | 69 | 69 | 69 | 69 |
| 04/29/2026 | 8:00:00 | 119 | 70 | 7:42:01 | 68 | 7:20:00 | 70 | 96 | 7:36:04 | 93 | 7:51:02 | 94.3 | 0 | 0.3 | 20 | 13 | 69 | 69 | 69 | 69 |
| 04/29/2026 | 9:00:00 | 119 | 70 | 8:05:02 | 68 | 8:22:00 | 70 | 94 | 8:00:00 | 85 | 8:57:02 | 87.4 | 0 | 0.8 | 144 | 26 | 70 | 70 | 69 | 69 |
| 04/29/2026 | 10:00:00 | 119 | 71 | 9:07:01 | 68 | 10:00:00 | 68 | 87 | 9:37:04 | 84 | 9:27:04 | 86.6 | 0 | 0.7 | 247 | 24 | 70 | 71 | 70 | 70 |
| 04/29/2026 | 11:00:00 | 119 | 69 | 10:35:01 | 67 | 10:10:01 | 68 | 88 | 10:11:05 | 82 | 10:58:01 | 84.2 | 0 | 0.8 | 252 | 23 | 71 | 71 | 70 | 70 |
| 04/29/2026 | 12:00:00 | 119 | 68 | 11:04:05 | 66 | 11:45:01 | 66 | 86 | 11:54:02 | 82 | 11:23:00 | 84.2 | 0 | 0.6 | 212 | 15 | 71 | 71 | 70 | 70 |
| 04/29/2026 | 13:00:00 | 119 | 71 | 12:44:00 | 66 | 12:01:01 | 69 | 86 | 12:08:03 | 75 | 12:49:04 | 78.35 | 0 | 0.6 | 118 | 31 | 71 | 71 | 70 | 71 |
| 04/29/2026 | 14:00:00 | 119 | 70 | 13:40:00 | 68 | 13:09:05 | 68 | 82 | 13:15:00 | 76 | 13:46:00 | 77.91 | 0 | 0.4 | 213 | 24 | 71 | 71 | 71 | 71 |
| 04/29/2026 | 15:00:00 | 119 | 69 | 14:32:00 | 67 | 14:54:04 | 67 | 82 | 14:24:04 | 76 | 14:36:00 | 79.02 | 0 | 0.4 | 275 | 15 | 71 | 71 | 71 | 71 |
| 04/29/2026 | 16:00:00 | 119 | 68 | 15:13:05 | 66 | 15:58:05 | 66 | 83 | 15:52:04 | 78 | 15:31:03 | 82.5 | 0 | 0.5 | 220 | 11 | 71 | 71 | 71 | 71 |
| 04/29/2026 | 17:00:00 | 119 | 66 | 16:26:02 | 65 | 16:53:03 | 65 | 84 | 16:21:03 | 80 | 16:46:02 | 81.3 | 0 | 0.8 | 214 | 8 | 71 | 71 | 71 | 71 |
| 04/29/2026 | 18:00:00 | 119 | 65 | 17:02:01 | 63 | 17:59:02 | 63 | 86 | 18:00:00 | 80 | 17:24:05 | 85.5 | 0 | 0.5 | 238 | 5 | 70 | 70 | 71 | 70 |
| 04/29/2026 | 19:00:00 | 119 | 63 | 18:00:00 | 61 | 18:59:04 | 61 | 90 | 18:58:05 | 85 | 18:01:01 | 90.2 | 0 | 0.1 | 233 | 1 | 70 | 70 | 70 | 70 |
| 04/29/2026 | 20:00:00 | 119 | 61 | 19:00:01 | 61 | 19:54:02 | 61 | 92 | 19:47:04 | 90 | 19:00:02 | 91.9 | 0 | 0.1 | 233 | 0 | 69 | 69 | 70 | 69 |
| 04/29/2026 | 21:00:00 | 119 | 61 | 20:27:01 | 61 | 20:50:05 | 61 | 93 | 20:58:05 | 92 | 20:00:00 | 92.9 | 0.01 | 0.5 | 254 | 0 | 69 | 69 | 69 | 69 |
| 04/29/2026 | 22:00:00 | 119 | 61 | 21:02:04 | 60 | 21:31:05 | 61 | 93 | 21:02:04 | 85 | 21:58:00 | 85.3 | 0 | 1.2 | 226 | 0 | 68 | 68 | 69 | 69 |
| 04/29/2026 | 23:00:00 | 119 | 61 | 22:01:03 | 59 | 22:58:03 | 59 | 86 | 22:09:03 | 82 | 22:49:05 | 83 | 0 | 0.8 | 181 | 0 | 68 | 68 | 69 | 68 |
| 04/30/2026 | 0:00:00 | 120 | 60 | 23:02:05 | 58 | 23:59:05 | 58 | 84 | 23:55:05 | 81 | 23:28:03 | 83.2 | 0 | 0.6 | 269 | 0 | 67 | 67 | 68 | 68 |
| 04/30/2026 | 1:00:00 | 120 | 58 | 0:00:02 | 56 | 0:59:05 | 56 | 86 | 0:28:01 | 83 | 0:00:01 | 85.2 | 0 | 0.3 | 140 | 0 | 67 | 67 | 68 | 68 |
| 04/30/2026 | 2:00:00 | 120 | 56 | 1:00:00 | 55 | 1:49:04 | 55 | 87 | 1:08:04 | 84 | 1:25:01 | 84 | 0 | 0.9 | 192 | 0 | 66 | 66 | 67 | 67 |
| 04/30/2026 | 3:00:00 | 120 | 55 | 2:00:01 | 53 | 2:54:03 | 53 | 88 | 2:53:05 | 83 | 2:06:04 | 86.5 | 0 | 0.3 | 249 | 0 | 66 | 65 | 67 | 67 |
| 04/30/2026 | 4:00:00 | 120 | 53 | 3:21:00 | 52 | 3:59:05 | 52 | 87 | 3:00:03 | 83 | 3:25:05 | 84.4 | 0 | 0.8 | 265 | 0 | 65 | 65 | 66 | 66 |
| 04/30/2026 | 5:00:00 | 120 | 52 | 4:00:02 | 50 | 4:59:05 | 50 | 88 | 5:00:00 | 84 | 4:06:02 | 87.9 | 0 | 0.0 | 266 | 0 | 65 | 64 | 66 | 65 |
| 04/30/2026 | 6:00:00 | 120 | 51 | 5:59:04 | 49 | 5:22:05 | 51 | 91 | 5:51:03 | 88 | 5:00:00 | 90.1 | 0 | 0.0 | 0 | 3 | 64 | 64 | 65 | 65 |
| 04/30/2026 | 7:00:00 | 120 | 57 | 6:56:05 | 51 | 6:00:03 | 56 | 90 | 6:00:00 | 76 | 6:57:03 | 77.61 | 0 | 0.3 | 234 | 16 | 64 | 64 | 65 | 65 |
| 04/30/2026 | 8:00:00 | 120 | 58 | 8:00:00 | 56 | 7:05:05 | 58 | 79 | 7:09:01 | 65 | 7:57:05 | 68.83 | 0 | 0.6 | 308 | 23 | 64 | 64 | 65 | 65 |
| 04/30/2026 | 9:00:00 | 120 | 63 | 8:54:05 | 58 | 8:09:04 | 63 | 71 | 8:08:04 | 55 | 8:57:01 | 58.72 | 0 | 1.1 | 360 | 21 | 65 | 65 | 65 | 65 |
| 04/30/2026 | 10:00:00 | 120 | 65 | 9:59:05 | 62 | 9:24:00 | 65 | 63 | 9:00:04 | 50 | 9:58:00 | 52.26 | 0 | 2.5 | 21 | 46 | 66 | 66 | 65 | 66 |
| 04/30/2026 | 11:00:00 | 120 | 68 | 10:47:04 | 65 | 10:00:00 | 67 | 56 | 10:05:02 | 45 | 10:42:01 | 51.78 | 0 | 2.0 | 13 | 66 | 67 | 68 | 66 | 67 |
| 04/30/2026 | 12:00:00 | 120 | 69 | 11:59:02 | 66 | 11:18:01 | 69 | 58 | 11:48:02 | 44 | 11:04:03 | 48.7 | 0 | 1.5 | 25 | 59 | 68 | 69 | 67 | 68 |
| 04/30/2026 | 13:00:00 | 120 | 70 | 12:29:02 | 69 | 12:13:03 | 70 | 54 | 12:38:02 | 43 | 12:51:04 | 44.3 | 0 | 1.4 | 26 | 66 | 69 | 70 | 68 | 68 |
| 04/30/2026 | 14:00:00 | 120 | 70 | 13:31:02 | 68 | 13:46:00 | 70 | 55 | 13:27:05 | 42 | 13:43:04 | 50.39 | 0 | 1.8 | 328 | 59 | 70 | 70 | 69 | 69 |
| 04/30/2026 | 15:00:00 | 120 | 70 | 14:03:01 | 68 | 14:45:04 | 70 | 54 | 14:00:02 | 43 | 14:17:02 | 48.86 | 0 | 1.2 | 327 | 49 | 70 | 70 | 69 | 69 |
| 04/30/2026 | 16:00:00 | 120 | 70 | 15:03:03 | 65 | 15:59:05 | 65 | 56 | 15:42:00 | 44 | 15:05:03 | 50.61 | 0 | 0.7 | 292 | 27 | 70 | 70 | 69 | 69 |
| 04/30/2026 | 17:00:00 | 120 | 65 | 16:00:00 | 63 | 16:57:04 | 63 | 61 | 16:55:04 | 50 | 16:06:01 | 58.15 | 0 | 0.7 | 229 | 14 | 69 | 69 | 69 | 69 |
| 04/30/2026 | 18:00:00 | 120 | 63 | 17:03:01 | 60 | 17:59:04 | 60 | 71 | 17:58:04 | 58 | 17:08:03 | 70.6 | 0 | 0.0 | 124 | 7 | 69 | 68 | 69 | 69 |
| 04/30/2026 | 19:00:00 | 120 | 60 | 18:00:01 | 56 | 18:59:05 | 56 | 78 | 18:52:03 | 70 | 18:01:01 | 77.13 | 0 | 0.1 | 198 | 1 | 68 | 67 | 68 | 68 |
| 04/30/2026 | 20:00:00 | 120 | 56 | 19:00:00 | 54 | 19:50:03 | 54 | 85 | 20:00:00 | 77 | 19:10:03 | 84.6 | 0 | 0.1 | 240 | 0 | 67 | 66 | 68 | 67 |
| 04/30/2026 | 21:00:00 | 120 | 54 | 20:00:02 | 53 | 20:57:05 | 53 | 89 | 20:59:03 | 85 | 20:01:04 | 88.6 | 0 | 0.0 | 0 | 0 | 66 | 66 | 67 | 67 |
| 04/30/2026 | 22:00:00 | 120 | 53 | 21:00:03 | 52 | 21:54:04 | 52 | 90 | 21:57:04 | 89 | 21:01:05 | 90.2 | 0 | 0.0 | 0 | 0 | 65 | 65 | 66 | 66 |
| 04/30/2026 | 23:00:00 | 120 | 52 | 22:00:01 | 50 | 22:59:04 | 50 | 91 | 22:59:04 | 90 | 22:01:02 | 91.3 | 0 | 0.0 | 273 | 0 | 65 | 64 | 66 | 66 |
| 05/01/2026 | 0:00:00 | 121 | 50 | 23:00:00 | 49 | 23:59:04 | 49 | 93 | 23:58:02 | 91 | 23:01:05 | 92.5 | 0 | 0.0 | 0 | 0 | 64 | 64 | 65 | 65 |
| 05/01/2026 | 1:00:00 | 121 | 49 | 0:59:01 | 48 | 0:05:03 | 49 | 93 | 1:00:00 | 92 | 0:05:00 | 93.3 | 0 | 0.0 | 0 | 0 | 63 | 63 | 65 | 64 |
| 05/01/2026 | 2:00:00 | 121 | 49 | 1:00:05 | 48 | 1:59:00 | 48 | 93 | 1:05:00 | 93 | 1:18:05 | 93.3 | 0 | 0.0 | 273 | 0 | 63 | 63 | 64 | 64 |
| 05/01/2026 | 3:00:00 | 121 | 48 | 2:00:00 | 46 | 2:59:05 | 46 | 94 | 2:51:00 | 93 | 2:09:00 | 93.4 | 0 | 0.0 | 273 | 0 | 62 | 62 | 64 | 64 |
| 05/01/2026 | 4:00:00 | 121 | 47 | 3:34:01 | 46 | 3:05:01 | 47 | 94 | 3:52:03 | 93 | 3:04:03 | 94 | 0 | 0.0 | 0 | 0 | 62 | 62 | 63 | 63 |
| 05/01/2026 | 5:00:00 | 121 | 47 | 4:00:00 | 46 | 4:42:00 | 46 | 94 | 4:59:04 | 94 | 4:01:04 | 94.4 | 0 | 0.0 | 4 | 0 | 61 | 61 | 63 | 63 |
| 05/01/2026 | 6:00:00 | 121 | 48 | 6:00:00 | 46 | 5:00:01 | 48 | 95 | 5:37:05 | 94 | 5:00:03 | 94.7 | 0 | 0.2 | 4 | 2 | 61 | 61 | 63 | 62 |
| 05/01/2026 | 7:00:00 | 121 | 52 | 6:59:05 | 48 | 6:00:00 | 52 | 95 | 6:17:00 | 95 | 6:00:04 | 95.1 | 0 | 0.0 | 0 | 8 | 61 | 61 | 62 | 62 |
| 05/01/2026 | 8:00:00 | 121 | 58 | 8:00:00 | 52 | 7:00:00 | 58 | 95 | 7:03:00 | 81 | 7:58:02 | 81.6 | 0 | 0.1 | 153 | 21 | 61 | 62 | 62 | 62 |
| 05/01/2026 | 9:00:00 | 121 | 62 | 8:59:05 | 58 | 8:01:04 | 62 | 82 | 8:00:00 | 68 | 8:55:04 | 69.69 | 0 | 0.4 | 263 | 30 | 62 | 63 | 63 | 63 |
| 05/01/2026 | 10:00:00 | 121 | 65 | 9:59:05 | 62 | 9:00:00 | 65 | 71 | 9:05:00 | 63 | 9:52:03 | 67.21 | 0 | 0.5 | 292 | 33 | 63 | 64 | 63 | 64 |
| 05/01/2026 | 11:00:00 | 121 | 67 | 10:57:00 | 65 | 10:03:02 | 67 | 69 | 10:00:05 | 58 | 10:57:03 | 62.69 | 0 | 0.7 | 235 | 37 | 64 | 65 | 64 | 64 |
| 05/01/2026 | 12:00:00 | 121 | 68 | 11:30:00 | 66 | 11:44:03 | 67 | 63 | 11:07:01 | 51 | 11:50:05 | 51.58 | 0 | 0.9 | 273 | 44 | 65 | 66 | 65 | 65 |
| 05/01/2026 | 13:00:00 | 121 | 68 | 12:53:05 | 66 | 12:14:04 | 68 | 57 | 12:27:01 | 48 | 12:34:01 | 52.88 | 0 | 0.7 | 337 | 44 | 66 | 67 | 65 | 66 |
| 05/01/2026 | 14:00:00 | 121 | 69 | 13:23:01 | 66 | 13:59:05 | 66 | 58 | 13:42:00 | 48 | 13:34:02 | 54.76 | 0 | 0.8 | 261 | 41 | 67 | 67 | 66 | 66 |
| 05/01/2026 | 15:00:00 | 121 | 69 | 14:54:04 | 66 | 14:07:05 | 68 | 61 | 14:17:05 | 51 | 14:55:03 | 56.25 | 0 | 0.8 | 252 | 37 | 67 | 67 | 67 | 67 |
| 05/01/2026 | 16:00:00 | 121 | 68 | 15:00:00 | 66 | 15:59:02 | 66 | 59 | 15:17:00 | 49 | 15:58:05 | 53.9 | 0 | 0.9 | 246 | 32 | 67 | 67 | 67 | 67 |
| 05/01/2026 | 17:00:00 | 121 | 66 | 16:35:03 | 63 | 16:21:02 | 65 | 62 | 16:51:00 | 50 | 16:02:00 | 54.3 | 0 | 0.8 | 240 | 22 | 67 | 67 | 67 | 67 |
| 05/01/2026 | 18:00:00 | 121 | 65 | 17:06:04 | 59 | 17:59:05 | 59 | 68 | 17:59:04 | 50 | 17:07:01 | 67.97 | 0 | 0.4 | 274 | 10 | 67 | 66 | 67 | 67 |
| 05/01/2026 | 19:00:00 | 121 | 59 | 18:00:01 | 55 | 18:58:01 | 55 | 78 | 18:55:03 | 66 | 18:01:00 | 77.72 | 0 | 0.0 | 276 | 1 | 66 | 65 | 66 | 66 |
| 05/01/2026 | 20:00:00 | 121 | 55 | 19:00:02 | 52 | 19:59:02 | 52 | 83 | 19:58:05 | 77 | 19:00:03 | 83.1 | 0 | 0.0 | 276 | 0 | 65 | 64 | 66 | 65 |
| 05/01/2026 | 21:00:00 | 121 | 52 | 20:01:03 | 52 | 20:58:05 | 52 | 87 | 20:56:05 | 83 | 20:05:04 | 86.8 | 0 | 0.0 | 276 | 0 | 64 | 64 | 65 | 65 |
| 05/01/2026 | 22:00:00 | 121 | 53 | 21:34:00 | 51 | 21:04:00 | 52 | 87 | 21:01:05 | 73 | 21:45:03 | 75.3 | 0 | 0.2 | 276 | 0 | 63 | 63 | 65 | 64 |
| 05/01/2026 | 23:00:00 | 121 | 52 | 22:00:03 | 51 | 22:58:01 | 51 | 79 | 23:00:00 | 74 | 22:00:04 | 78.94 | 0 | 0.1 | 276 | 0 | 63 | 63 | 64 | 64 |
| 05/02/2026 | 0:00:00 | 122 | 51 | 23:58:05 | 50 | 23:20:02 | 51 | 82 | 23:27:00 | 77 | 23:45:01 | 77.96 | 0 | 0.1 | 276 | 0 | 62 | 62 | 64 | 63 |
| 05/02/2026 | 1:00:00 | 122 | 51 | 0:06:00 | 50 | 1:00:00 | 50 | 79 | 0:49:00 | 73 | 0:24:04 | 77.56 | 0 | 0.1 | 276 | 0 | 62 | 62 | 63 | 63 |
| 05/02/2026 | 2:00:00 | 122 | 50 | 1:00:00 | 45 | 1:59:05 | 45 | 86 | 2:00:00 | 77 | 1:04:03 | 85.7 | 0 | 0.0 | 276 | 0 | 61 | 61 | 63 | 63 |
| 05/02/2026 | 3:00:00 | 122 | 45 | 2:00:00 | 43 | 2:59:05 | 43 | 90 | 2:58:00 | 86 | 2:00:00 | 90.1 | 0 | 0.0 | 0 | 0 | 61 | 60 | 62 | 62 |
| 05/02/2026 | 4:00:00 | 122 | 43 | 3:00:00 | 41 | 3:54:05 | 41 | 92 | 4:00:00 | 90 | 3:00:01 | 91.5 | 0 | 0.0 | 0 | 0 | 60 | 60 | 62 | 61 |
| 05/02/2026 | 5:00:00 | 122 | 41 | 4:01:01 | 40 | 4:58:04 | 40 | 92 | 4:59:01 | 91 | 4:00:01 | 92.3 | 0 | 0.0 | 0 | 0 | 59 | 59 | 61 | 61 |
| 05/02/2026 | 6:00:00 | 122 | 42 | 6:00:00 | 40 | 5:29:04 | 42 | 94 | 5:59:05 | 92 | 5:03:05 | 93.8 | 0 | 0.0 | 0 | 2 | 59 | 58 | 60 | 60 |
| 05/02/2026 | 7:00:00 | 122 | 52 | 7:00:00 | 42 | 6:00:00 | 52 | 95 | 6:08:00 | 85 | 6:44:03 | 85.3 | 0 | 0.0 | 27 | 18 | 58 | 59 | 60 | 60 |
| 05/02/2026 | 8:00:00 | 122 | 62 | 8:00:00 | 52 | 7:00:00 | 62 | 86 | 7:00:04 | 59 | 7:58:01 | 58.81 | 0 | 0.5 | 90 | 37 | 59 | 60 | 60 | 60 |
| 05/02/2026 | 9:00:00 | 122 | 65 | 8:59:05 | 61 | 8:04:05 | 65 | 60 | 8:00:03 | 46 | 9:00:00 | 45.51 | 0 | 1.2 | 30 | 33 | 60 | 61 | 61 | 61 |
| 05/02/2026 | 10:00:00 | 122 | 67 | 9:45:00 | 65 | 9:12:03 | 66 | 47 | 9:07:00 | 37 | 9:28:05 | 40.41 | 0 | 1.2 | 135 | 51 | 62 | 63 | 62 | 62 |
| 05/02/2026 | 11:00:00 | 122 | 69 | 10:45:03 | 65 | 10:04:03 | 69 | 46 | 10:08:05 | 34 | 10:46:05 | 39.98 | 0 | 2.1 | 204 | 76 | 65 | 66 | 63 | 64 |
| 05/02/2026 | 12:00:00 | 122 | 72 | 11:07:02 | 68 | 11:32:02 | 68 | 46 | 11:01:02 | 32 | 11:13:02 | 37.3 | 0 | 2.3 | 165 | 67 | 66 | 67 | 65 | 65 |
| 05/02/2026 | 13:00:00 | 122 | 71 | 12:45:05 | 68 | 12:00:00 | 70 | 45 | 12:22:01 | 34 | 12:47:00 | 36.24 | 0 | 2.0 | 219 | 59 | 67 | 67 | 66 | 66 |
| 05/02/2026 | 14:00:00 | 122 | 74 | 13:40:03 | 68 | 13:57:04 | 68 | 44 | 13:06:03 | 32 | 13:32:00 | 38.95 | 0 | 1.2 | 333 | 53 | 68 | 68 | 66 | 67 |
| 05/02/2026 | 15:00:00 | 122 | 73 | 14:41:01 | 68 | 14:04:01 | 70 | 47 | 14:21:04 | 34 | 14:36:04 | 38.92 | 0 | 1.8 | 145 | 46 | 67 | 67 | 67 | 67 |
| 05/02/2026 | 16:00:00 | 122 | 72 | 15:40:04 | 68 | 15:08:04 | 71 | 47 | 15:10:02 | 33 | 15:59:05 | 32.99 | 0 | 1.3 | 14 | 40 | 67 | 67 | 67 | 67 |
| 05/02/2026 | 17:00:00 | 122 | 72 | 16:55:01 | 69 | 16:43:05 | 71 | 41 | 16:51:03 | 32 | 16:00:05 | 35.63 | 0 | 1.3 | 8 | 33 | 67 | 67 | 67 | 66 |
| 05/02/2026 | 18:00:00 | 122 | 72 | 17:11:02 | 64 | 17:59:04 | 64 | 51 | 18:00:00 | 34 | 17:01:00 | 51.14 | 0 | 0.5 | 254 | 13 | 66 | 66 | 66 | 66 |
| 05/02/2026 | 19:00:00 | 122 | 64 | 18:00:01 | 57 | 18:59:04 | 57 | 65 | 19:00:00 | 48 | 18:12:05 | 64.69 | 0 | 0.1 | 308 | 1 | 66 | 65 | 66 | 66 |
| 05/02/2026 | 20:00:00 | 122 | 57 | 19:00:00 | 52 | 19:59:03 | 52 | 76 | 20:00:00 | 63 | 19:00:05 | 75.94 | 0 | 0.0 | 0 | 0 | 64 | 64 | 65 | 65 |
| 05/02/2026 | 21:00:00 | 122 | 52 | 20:00:00 | 50 | 20:48:05 | 50 | 83 | 20:38:02 | 76 | 20:01:05 | 77.67 | 0 | 0.1 | 196 | 0 | 63 | 63 | 65 | 64 |
| 05/02/2026 | 22:00:00 | 122 | 50 | 21:00:05 | 48 | 21:59:02 | 48 | 86 | 21:59:05 | 78 | 21:00:00 | 86.1 | 0 | 0.0 | 196 | 0 | 62 | 62 | 64 | 63 |
| 05/02/2026 | 23:00:00 | 122 | 48 | 22:00:05 | 46 | 22:59:04 | 46 | 89 | 22:59:04 | 86 | 22:00:02 | 88.9 | 0 | 0.0 | 0 | 0 | 62 | 61 | 63 | 63 |
| 05/03/2026 | 0:00:00 | 123 | 46 | 23:00:01 | 44 | 23:56:01 | 44 | 91 | 23:59:03 | 89 | 23:00:01 | 91 | 0 | 0.0 | 196 | 0 | 61 | 61 | 62 | 62 |
| 05/03/2026 | 1:00:00 | 123 | 44 | 0:00:03 | 43 | 0:59:02 | 43 | 92 | 1:00:00 | 91 | 0:00:00 | 91.8 | 0 | 0.0 | 196 | 0 | 60 | 60 | 62 | 62 |
| 05/03/2026 | 2:00:00 | 123 | 43 | 1:00:00 | 42 | 1:59:03 | 42 | 92 | 1:55:02 | 92 | 1:00:00 | 92.4 | 0 | 0.0 | 0 | 0 | 60 | 59 | 61 | 61 |
| 05/03/2026 | 3:00:00 | 123 | 42 | 2:00:00 | 40 | 2:55:03 | 40 | 93 | 2:59:05 | 92 | 2:09:03 | 92.9 | 0 | 0.0 | 196 | 0 | 59 | 59 | 61 | 60 |
| 05/03/2026 | 4:00:00 | 123 | 40 | 3:00:01 | 39 | 3:59:02 | 39 | 93 | 3:44:04 | 93 | 3:10:02 | 93.1 | 0 | 0.0 | 0 | 0 | 58 | 58 | 60 | 60 |
| 05/03/2026 | 5:00:00 | 123 | 39 | 4:00:01 | 38 | 4:59:02 | 38 | 94 | 4:56:04 | 93 | 4:07:04 | 93.5 | 0 | 0.0 | 0 | 0 | 58 | 57 | 60 | 59 |
| 05/03/2026 | 6:00:00 | 123 | 40 | 6:00:00 | 38 | 5:23:00 | 40 | 95 | 5:59:05 | 94 | 5:00:02 | 94.7 | 0 | 0.0 | 196 | 2 | 57 | 57 | 59 | 59 |
| 05/03/2026 | 7:00:00 | 123 | 54 | 6:59:05 | 40 | 6:00:00 | 54 | 96 | 6:16:04 | 79 | 6:59:01 | 79.97 | 0 | 0.4 | 174 | 21 | 57 | 57 | 59 | 59 |
| 05/03/2026 | 8:00:00 | 123 | 61 | 8:00:00 | 54 | 7:00:01 | 61 | 80 | 7:01:02 | 56 | 7:58:01 | 56.87 | 0 | 3.6 | 150 | 37 | 58 | 59 | 59 | 59 |
| 05/03/2026 | 9:00:00 | 123 | 66 | 8:59:05 | 61 | 8:00:01 | 66 | 61 | 8:02:03 | 45 | 9:00:00 | 44.9 | 0 | 3.3 | 150 | 35 | 59 | 60 | 60 | 60 |
| 05/03/2026 | 10:00:00 | 123 | 69 | 9:59:05 | 65 | 9:40:04 | 69 | 49 | 9:10:02 | 39 | 9:26:04 | 41.94 | 0 | 3.0 | 162 | 50 | 61 | 63 | 61 | 62 |
| 05/03/2026 | 11:00:00 | 123 | 71 | 10:59:05 | 67 | 10:06:05 | 71 | 46 | 10:13:02 | 34 | 10:38:04 | 36.72 | 0 | 3.0 | 126 | 76 | 64 | 65 | 63 | 63 |
| 05/03/2026 | 12:00:00 | 123 | 72 | 11:04:00 | 68 | 11:12:01 | 71 | 45 | 11:22:00 | 34 | 11:04:04 | 40.08 | 0 | 2.1 | 126 | 81 | 66 | 67 | 64 | 65 |
| 05/03/2026 | 13:00:00 | 123 | 73 | 12:57:01 | 70 | 12:07:02 | 73 | 42 | 12:08:01 | 33 | 12:34:04 | 33.54 | 0 | 3.7 | 150 | 80 | 68 | 68 | 65 | 66 |
| 05/03/2026 | 14:00:00 | 123 | 74 | 13:30:05 | 72 | 13:08:05 | 73 | 41 | 13:54:00 | 32 | 13:23:03 | 36.27 | 0 | 3.4 | 206 | 74 | 68 | 69 | 67 | 67 |
| 05/03/2026 | 15:00:00 | 123 | 75 | 14:38:05 | 72 | 14:03:02 | 75 | 40 | 14:18:03 | 32 | 14:24:03 | 34.05 | 0 | 4.1 | 112 | 65 | 69 | 69 | 67 | 67 |
| 05/03/2026 | 16:00:00 | 123 | 77 | 16:00:00 | 74 | 15:05:05 | 77 | 39 | 15:51:02 | 31 | 15:28:05 | 35.79 | 0 | 2.9 | 92 | 51 | 68 | 68 | 67 | 67 |
| 05/03/2026 | 17:00:00 | 123 | 77 | 16:01:05 | 73 | 16:22:03 | 74 | 39 | 16:54:01 | 32 | 16:20:02 | 34.91 | 0 | 3.5 | 141 | 35 | 68 | 68 | 67 | 67 |
| 05/03/2026 | 18:00:00 | 123 | 75 | 17:08:05 | 70 | 17:59:05 | 70 | 44 | 17:58:02 | 33 | 17:09:01 | 42.53 | 0 | 2.1 | 95 | 16 | 67 | 67 | 67 | 67 |
| 05/03/2026 | 19:00:00 | 123 | 70 | 18:00:00 | 59 | 18:59:03 | 59 | 67 | 18:45:00 | 42 | 18:02:05 | 65.88 | 0 | 0.2 | 105 | 1 | 66 | 66 | 67 | 66 |
| 05/03/2026 | 20:00:00 | 123 | 59 | 19:00:00 | 54 | 19:59:05 | 54 | 82 | 20:00:00 | 65 | 19:01:01 | 82.3 | 0 | 0.0 | 16 | 0 | 65 | 65 | 66 | 66 |
| 05/03/2026 | 21:00:00 | 123 | 54 | 20:00:01 | 52 | 20:58:05 | 52 | 87 | 20:59:05 | 82 | 20:00:00 | 87 | 0 | 0.0 | 0 | 0 | 64 | 64 | 65 | 65 |
| 05/03/2026 | 22:00:00 | 123 | 52 | 21:00:01 | 51 | 21:59:02 | 51 | 88 | 21:56:05 | 87 | 21:04:03 | 88.3 | 0 | 0.0 | 348 | 0 | 63 | 63 | 64 | 64 |
| 05/03/2026 | 23:00:00 | 123 | 55 | 22:59:05 | 51 | 22:25:04 | 55 | 89 | 22:28:02 | 77 | 22:59:03 | 77.15 | 0 | 0.2 | 208 | 0 | 63 | 62 | 64 | 64 |
| 05/04/2026 | 0:00:00 | 124 | 60 | 23:53:01 | 55 | 23:00:01 | 60 | 77 | 23:00:00 | 65 | 23:52:02 | 65.18 | 0 | 0.9 | 125 | 0 | 62 | 62 | 63 | 63 |
| 05/04/2026 | 1:00:00 | 124 | 60 | 0:02:00 | 58 | 0:52:01 | 58 | 70 | 0:51:04 | 65 | 0:00:00 | 69.51 | 0 | 0.3 | 164 | 0 | 62 | 62 | 63 | 63 |
| 05/04/2026 | 2:00:00 | 124 | 59 | 1:59:03 | 58 | 1:15:05 | 59 | 71 | 1:16:02 | 69 | 1:04:00 | 69.62 | 0 | 0.4 | 176 | 0 | 62 | 62 | 63 | 63 |
| 05/04/2026 | 3:00:00 | 124 | 59 | 2:36:05 | 58 | 2:53:03 | 58 | 72 | 2:56:02 | 70 | 2:01:03 | 71.77 | 0 | 0.1 | 155 | 0 | 61 | 61 | 62 | 62 |
| 05/04/2026 | 4:00:00 | 124 | 60 | 3:39:05 | 58 | 3:06:03 | 60 | 72 | 3:13:01 | 70 | 3:31:04 | 71.29 | 0 | 0.7 | 95 | 0 | 61 | 61 | 62 | 62 |
| 05/04/2026 | 5:00:00 | 124 | 61 | 4:55:00 | 60 | 4:00:00 | 60 | 72 | 4:24:03 | 70 | 4:14:00 | 71.09 | 0 | 1.9 | 94 | 0 | 61 | 61 | 62 | 62 |
| 05/04/2026 | 6:00:00 | 124 | 62 | 5:59:02 | 60 | 5:02:01 | 62 | 72 | 5:52:03 | 71 | 5:15:05 | 70.82 | 0 | 1.8 | 78 | 3 | 61 | 61 | 62 | 62 |
| 05/04/2026 | 7:00:00 | 124 | 66 | 6:58:02 | 62 | 6:00:00 | 66 | 71 | 6:20:03 | 67 | 6:58:04 | 69.12 | 0 | 2.4 | 85 | 14 | 61 | 62 | 62 | 62 |
| 05/04/2026 | 8:00:00 | 124 | 69 | 7:58:02 | 66 | 7:00:00 | 69 | 69 | 7:00:01 | 62 | 7:58:04 | 62.52 | 0 | 3.8 | 145 | 35 | 62 | 62 | 62 | 62 |
| 05/04/2026 | 9:00:00 | 124 | 72 | 9:00:00 | 69 | 8:01:04 | 72 | 64 | 8:02:01 | 57 | 8:26:02 | 58.73 | 0 | 4.9 | 195 | 40 | 63 | 64 | 63 | 63 |
| 05/04/2026 | 10:00:00 | 124 | 75 | 9:54:03 | 72 | 9:00:00 | 75 | 61 | 9:01:05 | 51 | 9:57:03 | 53.2 | 0 | 5.2 | 216 | 49 | 65 | 66 | 64 | 65 |
| 05/04/2026 | 11:00:00 | 124 | 78 | 10:55:05 | 74 | 10:02:02 | 77 | 56 | 10:03:03 | 47 | 10:56:01 | 49.47 | 0 | 5.9 | 185 | 73 | 67 | 68 | 65 | 66 |
| 05/04/2026 | 12:00:00 | 124 | 80 | 11:57:04 | 77 | 11:15:05 | 79 | 52 | 11:50:02 | 42 | 11:59:05 | 42.13 | 0 | 6.1 | 188 | 81 | 69 | 70 | 67 | 67 |
| 05/04/2026 | 13:00:00 | 124 | 81 | 12:59:05 | 78 | 12:16:04 | 81 | 48 | 12:22:00 | 41 | 12:54:04 | 43.61 | 0 | 4.3 | 203 | 80 | 71 | 71 | 68 | 69 |
| 05/04/2026 | 14:00:00 | 124 | 82 | 13:06:03 | 78 | 13:59:02 | 78 | 46 | 13:59:01 | 39 | 13:46:04 | 44.94 | 0 | 2.7 | 109 | 68 | 71 | 72 | 69 | 70 |
| 05/04/2026 | 15:00:00 | 124 | 81 | 14:48:02 | 78 | 14:00:04 | 81 | 46 | 14:02:01 | 40 | 14:48:05 | 43.07 | 0 | 5.4 | 145 | 57 | 71 | 71 | 70 | 70 |
| 05/04/2026 | 16:00:00 | 124 | 81 | 15:13:05 | 79 | 15:30:00 | 80 | 45 | 15:54:02 | 40 | 15:57:05 | 40.27 | 0 | 4.0 | 92 | 48 | 71 | 71 | 70 | 70 |
| 05/04/2026 | 17:00:00 | 124 | 80 | 16:00:01 | 78 | 16:37:00 | 79 | 45 | 16:37:04 | 39 | 16:01:04 | 41.74 | 0 | 3.1 | 112 | 33 | 70 | 70 | 70 | 70 |
| 05/04/2026 | 18:00:00 | 124 | 79 | 17:09:02 | 74 | 17:59:05 | 74 | 49 | 17:58:04 | 41 | 17:03:00 | 48.1 | 0 | 2.6 | 92 | 14 | 70 | 70 | 69 | 69 |
| 05/04/2026 | 19:00:00 | 124 | 74 | 18:00:00 | 71 | 18:59:04 | 71 | 53 | 19:00:00 | 46 | 18:09:02 | 53.27 | 0 | 2.5 | 87 | 1 | 69 | 69 | 69 | 69 |
| 05/04/2026 | 20:00:00 | 124 | 71 | 19:00:01 | 63 | 19:59:05 | 63 | 73 | 19:59:05 | 53 | 19:02:00 | 73.35 | 0 | 0.0 | 69 | 0 | 68 | 68 | 68 | 68 |
| 05/04/2026 | 21:00:00 | 124 | 64 | 20:59:01 | 61 | 20:20:01 | 64 | 76 | 20:16:02 | 66 | 20:58:00 | 67.23 | 0 | 0.5 | 34 | 0 | 67 | 67 | 68 | 67 |
| 05/04/2026 | 22:00:00 | 124 | 64 | 21:00:05 | 60 | 21:59:04 | 60 | 77 | 21:56:03 | 67 | 21:02:01 | 77.17 | 0 | 0.1 | 61 | 0 | 66 | 66 | 67 | 67 |
| 05/04/2026 | 23:00:00 | 124 | 60 | 22:00:01 | 59 | 22:45:01 | 60 | 79 | 22:42:01 | 76 | 22:58:05 | 76.37 | 0 | 0.2 | 86 | 0 | 66 | 65 | 66 | 66 |
| 05/05/2026 | 0:00:00 | 125 | 61 | 23:42:05 | 60 | 23:00:00 | 61 | 77 | 23:15:01 | 73 | 23:43:03 | 73.81 | 0 | 0.5 | 158 | 0 | 65 | 65 | 66 | 66 |
| 05/05/2026 | 1:00:00 | 125 | 61 | 0:44:00 | 61 | 0:11:05 | 61 | 74 | 0:12:03 | 72 | 0:43:01 | 73.6 | 0 | 0.7 | 105 | 0 | 65 | 64 | 65 | 65 |
| 05/05/2026 | 2:00:00 | 125 | 61 | 1:00:00 | 60 | 1:59:02 | 60 | 77 | 1:58:03 | 73 | 1:06:00 | 76.56 | 0 | 1.1 | 26 | 0 | 64 | 64 | 65 | 65 |
| 05/05/2026 | 3:00:00 | 125 | 61 | 2:51:00 | 60 | 2:00:01 | 61 | 77 | 2:07:00 | 75 | 2:51:01 | 75.3 | 0 | 1.8 | 74 | 0 | 64 | 64 | 65 | 65 |
| 05/05/2026 | 4:00:00 | 125 | 61 | 3:00:05 | 60 | 3:19:01 | 60 | 76 | 3:59:05 | 75 | 3:26:02 | 76.31 | 0 | 1.9 | 90 | 0 | 64 | 64 | 64 | 64 |
| 05/05/2026 | 5:00:00 | 125 | 60 | 4:00:01 | 59 | 4:36:05 | 60 | 79 | 4:36:03 | 76 | 4:00:00 | 78.89 | 0 | 1.2 | 46 | 0 | 63 | 63 | 64 | 64 |
| 05/05/2026 | 6:00:00 | 125 | 60 | 5:00:01 | 59 | 5:30:02 | 59 | 82 | 5:42:02 | 79 | 5:00:00 | 80.8 | 0 | 1.2 | 88 | 1 | 63 | 63 | 64 | 64 |
| 05/05/2026 | 7:00:00 | 125 | 62 | 6:59:03 | 59 | 6:01:01 | 62 | 81 | 6:23:05 | 77 | 6:59:05 | 77.52 | 0 | 1.7 | 117 | 6 | 63 | 63 | 64 | 64 |
| 05/05/2026 | 8:00:00 | 125 | 63 | 7:50:01 | 62 | 7:00:04 | 63 | 78 | 7:02:03 | 76 | 7:19:01 | 77.23 | 0 | 2.2 | 46 | 10 | 64 | 64 | 64 | 64 |
| 05/05/2026 | 9:00:00 | 125 | 63 | 8:01:04 | 60 | 8:55:01 | 60 | 89 | 8:58:04 | 77 | 8:00:00 | 88.6 | 0.05 | 2.1 | 105 | 3 | 64 | 64 | 64 | 64 |
| 05/05/2026 | 10:00:00 | 125 | 60 | 9:45:00 | 60 | 9:07:03 | 60 | 92 | 9:59:05 | 89 | 9:01:03 | 91.8 | 0.09 | 0.6 | 71 | 2 | 64 | 64 | 64 | 64 |
| 05/05/2026 | 11:00:00 | 125 | 61 | 10:59:03 | 60 | 10:01:00 | 61 | 94 | 11:00:00 | 92 | 10:00:02 | 93.6 | 0.31 | 1.1 | 143 | 4 | 64 | 64 | 64 | 64 |
| 05/05/2026 | 12:00:00 | 125 | 65 | 11:59:04 | 61 | 11:00:00 | 65 | 94 | 11:02:03 | 90 | 11:59:03 | 90.5 | 0 | 3.0 | 147 | 15 | 64 | 64 | 64 | 64 |
| 05/05/2026 | 13:00:00 | 125 | 66 | 12:59:05 | 64 | 12:01:00 | 66 | 91 | 12:00:01 | 85 | 12:35:04 | 87.3 | 0 | 3.4 | 111 | 11 | 64 | 65 | 64 | 64 |
| 05/05/2026 | 14:00:00 | 125 | 67 | 13:46:04 | 66 | 13:00:00 | 67 | 87 | 13:00:01 | 83 | 13:56:01 | 83.7 | 0 | 3.9 | 87 | 9 | 65 | 65 | 65 | 65 |
| 05/05/2026 | 15:00:00 | 125 | 67 | 14:00:00 | 66 | 14:59:02 | 66 | 87 | 15:00:00 | 83 | 14:35:04 | 86.5 | 0 | 3.2 | 135 | 4 | 65 | 65 | 65 | 65 |
| 05/05/2026 | 16:00:00 | 125 | 68 | 15:57:04 | 66 | 15:06:03 | 68 | 87 | 15:08:01 | 82 | 15:56:01 | 82.6 | 0 | 2.6 | 154 | 7 | 65 | 65 | 65 | 65 |
| 05/05/2026 | 17:00:00 | 125 | 71 | 16:45:02 | 68 | 16:01:01 | 70 | 83 | 16:03:03 | 79 | 16:50:02 | 80.4 | 0 | 1.3 | 155 | 11 | 65 | 65 | 65 | 65 |
| 05/05/2026 | 18:00:00 | 125 | 70 | 17:00:01 | 70 | 17:58:01 | 70 | 82 | 17:57:02 | 80 | 17:02:02 | 82 | 0 | 2.1 | 87 | 3 | 66 | 66 | 65 | 65 |
| 05/05/2026 | 19:00:00 | 125 | 70 | 18:00:00 | 69 | 18:30:05 | 69 | 82 | 18:12:04 | 80 | 18:45:05 | 80.2 | 0 | 2.1 | 77 | 1 | 66 | 66 | 65 | 65 |
| 05/05/2026 | 20:00:00 | 125 | 70 | 19:00:05 | 69 | 19:27:03 | 69 | 82 | 19:28:01 | 80 | 19:01:04 | 80.9 | 0 | 2.6 | 87 | 0 | 65 | 65 | 65 | 65 |
| 05/05/2026 | 21:00:00 | 125 | 70 | 20:58:04 | 69 | 20:17:01 | 70 | 82 | 20:37:04 | 81 | 20:00:03 | 80.8 | 0 | 2.1 | 114 | 0 | 65 | 65 | 65 | 65 |
| 05/05/2026 | 22:00:00 | 125 | 70 | 21:53:02 | 70 | 21:10:00 | 70 | 81 | 21:13:01 | 81 | 21:54:00 | 80.9 | 0 | 1.8 | 107 | 0 | 65 | 65 | 65 | 65 |
| 05/05/2026 | 23:00:00 | 125 | 70 | 22:58:02 | 70 | 22:33:02 | 70 | 81 | 22:34:05 | 81 | 22:08:04 | 80.7 | 0 | 1.7 | 85 | 0 | 65 | 65 | 65 | 65 |
| 05/06/2026 | 0:00:00 | 126 | 71 | 23:34:01 | 70 | 23:04:03 | 71 | 81 | 0:00:00 | 80 | 23:34:02 | 81.2 | 0 | 2.8 | 73 | 0 | 65 | 65 | 65 | 65 |
| 05/06/2026 | 1:00:00 | 126 | 72 | 0:57:01 | 70 | 0:06:00 | 72 | 82 | 0:22:02 | 81 | 0:00:04 | 81.3 | 0 | 1.8 | 88 | 0 | 65 | 65 | 65 | 65 |
| 05/06/2026 | 2:00:00 | 126 | 72 | 1:44:00 | 71 | 2:00:00 | 71 | 83 | 2:00:00 | 81 | 1:20:00 | 83.2 | 0 | 1.6 | 80 | 0 | 65 | 65 | 65 | 65 |
| 05/06/2026 | 3:00:00 | 126 | 71 | 2:00:00 | 57 | 2:59:04 | 57 | 93 | 2:58:02 | 83 | 2:00:00 | 92.3 | 1.25 | 1.3 | 206 | 0 | 65 | 65 | 65 | 65 |
| 05/06/2026 | 4:00:00 | 126 | 57 | 3:00:03 | 56 | 3:51:03 | 56 | 94 | 3:53:04 | 92 | 3:02:04 | 94.2 | 0.12 | 0.9 | 138 | 0 | 64 | 63 | 65 | 64 |
| Average | 62.79 | 60.12 | 61.45 | 76.27 | 69.54 | 72.86 | 0.01 | 1.19 | 16.52 | 65.18 | 65.25 | 65.48 | 65.45 | |||||||
| Total | 1.83 |